createdAt,value
2023-01-17T00:02:06.823Z,58.94
2023-01-17T00:04:52.605Z,59.16
2023-01-17T00:07:40.306Z,58.17
2023-01-17T00:10:10.485Z,58.36
2023-01-17T00:12:40.066Z,57.67
2023-01-17T00:15:09.356Z,58.33
2023-01-17T00:17:37.232Z,57.47
2023-01-17T00:20:23.220Z,58.61
2023-01-17T00:23:08.488Z,58.37
2023-01-17T00:25:57.138Z,58.69
2023-01-17T00:28:26.635Z,58.78
2023-01-17T00:30:53.790Z,58.63
2023-01-17T00:33:22.106Z,58.71
2023-01-17T00:35:49.430Z,59.83
2023-01-17T00:38:17.952Z,60.28
2023-01-17T00:40:46.002Z,59.97
2023-01-17T00:43:33.403Z,60.06
2023-01-17T00:46:20.333Z,59.68
2023-01-17T00:49:05.449Z,60.71
2023-01-17T00:51:52.172Z,59.72
2023-01-17T00:54:38.092Z,60.08
2023-01-17T00:57:24.438Z,60.38
2023-01-17T01:00:10.003Z,59.19
2023-01-17T01:02:57.432Z,59.19
2023-01-17T01:05:43.059Z,59.87
2023-01-17T01:08:36.075Z,59.61
2023-01-17T01:11:24.211Z,61.35
2023-01-17T01:14:09.397Z,61.49
2023-01-17T01:16:54.759Z,60.78
2023-01-17T01:19:41.356Z,59.87
2023-01-17T01:22:26.470Z,59.84
2023-01-17T01:25:11.880Z,59.54
2023-01-17T01:27:57.193Z,59.65
2023-01-17T01:30:42.420Z,60.28
2023-01-17T01:33:18.851Z,60.40
2023-01-17T01:35:49.544Z,59.57
2023-01-17T01:38:18.003Z,59.54
2023-01-17T01:40:47.731Z,60.31
2023-01-17T01:43:17.798Z,60.29
2023-01-17T01:45:50.714Z,60.24
2023-01-17T01:48:31.258Z,59.94
2023-01-17T01:51:02.355Z,60.21
2023-01-17T01:53:32.650Z,60.04
2023-01-17T01:56:00.650Z,59.94
2023-01-17T01:58:33.129Z,59.79
2023-01-17T02:01:01.098Z,60.62
2023-01-17T02:03:32.884Z,61.48
2023-01-17T02:06:13.199Z,59.89
2023-01-17T02:08:42.325Z,60.97
2023-01-17T02:11:10.608Z,59.12
2023-01-17T02:13:38.482Z,60.79
2023-01-17T02:16:15.196Z,59.66
2023-01-17T02:18:57.298Z,59.61
2023-01-17T02:21:31.251Z,60.09
2023-01-17T02:24:31.100Z,59.92
2023-01-17T02:27:04.156Z,60.25
2023-01-17T02:30:08.711Z,60.13
2023-01-17T02:32:48.034Z,59.84
2023-01-17T02:35:28.136Z,60.07
2023-01-17T02:38:04.296Z,59.64
2023-01-17T02:40:39.429Z,59.63
2023-01-17T02:43:11.752Z,59.66
2023-01-17T02:45:39.754Z,59.89
2023-01-17T02:48:11.973Z,59.85
2023-01-17T02:50:58.579Z,59.13
2023-01-17T02:53:40.413Z,59.21
2023-01-17T02:56:20.793Z,59.07
2023-01-17T02:59:06.695Z,58.54
2023-01-17T03:01:43.962Z,58.38
2023-01-17T03:04:18.075Z,58.08
2023-01-17T03:06:53.125Z,58.59
2023-01-17T03:09:22.288Z,59.30
2023-01-17T03:11:50.427Z,59.36
2023-01-17T03:14:18.477Z,59.71
2023-01-17T03:16:47.287Z,60.61
2023-01-17T03:19:16.687Z,61.41
2023-01-17T03:21:44.665Z,61.93
2023-01-17T03:24:12.697Z,61.00
2023-01-17T03:26:40.741Z,61.67
2023-01-17T03:29:08.745Z,60.66
2023-01-17T03:31:36.837Z,61.93
2023-01-17T03:34:04.932Z,61.97
2023-01-17T03:36:34.373Z,62.01
2023-01-17T03:39:03.023Z,63.24
2023-01-17T03:41:31.105Z,62.53
2023-01-17T03:43:59.072Z,62.53
2023-01-17T03:46:28.619Z,63.07
2023-01-17T03:48:56.733Z,62.52
2023-01-17T03:51:24.885Z,63.21
2023-01-17T03:53:54.600Z,62.52
2023-01-17T03:56:22.604Z,62.47
2023-01-17T03:58:51.544Z,62.32
2023-01-17T04:01:20.036Z,62.92
2023-01-17T04:03:48.119Z,62.49
2023-01-17T04:06:16.269Z,61.71
2023-01-17T04:08:44.399Z,61.55
2023-01-17T04:11:13.704Z,62.17
2023-01-17T04:13:41.650Z,62.33
2023-01-17T04:16:14.311Z,61.76
2023-01-17T04:18:42.368Z,63.37
2023-01-17T04:21:10.327Z,62.79
2023-01-17T04:23:38.439Z,63.28
2023-01-17T04:26:06.578Z,63.77
2023-01-17T04:28:35.834Z,63.47
2023-01-17T04:31:03.845Z,63.21
2023-01-17T04:33:31.961Z,64.32
2023-01-17T04:36:00.123Z,64.50
2023-01-17T04:38:28.156Z,64.08
2023-01-17T04:40:56.164Z,64.09
2023-01-17T04:43:24.163Z,63.70
2023-01-17T04:45:57.480Z,63.66
2023-01-17T04:48:26.168Z,63.55
2023-01-17T04:51:00.923Z,64.63
2023-01-17T04:53:29.023Z,64.64
2023-01-17T04:55:57.111Z,65.83
2023-01-17T04:58:25.218Z,65.93
2023-01-17T05:00:53.209Z,67.04
2023-01-17T05:03:24.081Z,66.33
2023-01-17T05:05:52.185Z,66.64
2023-01-17T05:08:20.068Z,67.19
2023-01-17T05:10:48.332Z,67.12
2023-01-17T05:13:16.481Z,68.09
2023-01-17T05:15:44.806Z,67.37
2023-01-17T05:18:13.822Z,67.82
2023-01-17T05:20:43.217Z,68.45
2023-01-17T05:23:12.027Z,68.47
2023-01-17T05:25:44.529Z,68.59
2023-01-17T05:28:13.244Z,68.49
2023-01-17T05:30:41.613Z,68.99
2023-01-17T05:33:10.279Z,68.38
2023-01-17T05:35:38.573Z,68.87
2023-01-17T05:38:07.811Z,68.76
2023-01-17T05:40:35.731Z,67.54
2023-01-17T05:43:04.602Z,67.38
2023-01-17T05:45:34.159Z,67.99
2023-01-17T05:48:02.831Z,67.49
2023-01-17T05:50:33.400Z,66.29
2023-01-17T05:53:03.394Z,66.71
2023-01-17T05:55:33.748Z,67.88
2023-01-17T05:58:02.331Z,66.38
2023-01-17T06:00:30.792Z,66.80
2023-01-17T06:03:00.902Z,65.65
2023-01-17T06:05:30.123Z,66.22
2023-01-17T06:07:58.338Z,65.33
2023-01-17T06:10:26.820Z,65.67
2023-01-17T06:13:04.761Z,65.70
2023-01-17T06:15:32.961Z,65.03
2023-01-17T06:18:05.873Z,65.80
2023-01-17T06:20:34.567Z,65.97
2023-01-17T06:23:04.378Z,66.12
2023-01-17T06:25:36.687Z,65.53
2023-01-17T06:28:06.771Z,65.75
2023-01-17T06:30:35.007Z,65.65
2023-01-17T06:33:03.030Z,66.33
2023-01-17T06:35:31.039Z,65.20
2023-01-17T06:38:00.412Z,66.25
2023-01-17T06:40:29.232Z,66.16
2023-01-17T06:43:01.588Z,66.92
2023-01-17T06:45:31.565Z,65.98
2023-01-17T06:48:00.665Z,66.94
2023-01-17T06:50:28.592Z,66.15
2023-01-17T06:52:57.575Z,65.82
2023-01-17T06:55:28.741Z,65.86
2023-01-17T06:57:56.969Z,66.06
2023-01-17T07:00:25.258Z,64.93
2023-01-17T07:02:54.775Z,66.07
2023-01-17T07:05:23.230Z,66.18
2023-01-17T07:07:51.125Z,65.77
2023-01-17T07:10:19.314Z,66.81
2023-01-17T07:12:47.535Z,67.53
2023-01-17T07:15:15.549Z,65.47
2023-01-17T07:17:43.451Z,66.01
2023-01-17T07:20:13.507Z,65.03
2023-01-17T07:22:45.300Z,64.55
2023-01-17T07:25:13.263Z,66.06
2023-01-17T07:27:41.126Z,65.56
2023-01-17T07:30:10.659Z,66.32
2023-01-17T07:32:38.817Z,65.94
2023-01-17T07:35:07.901Z,66.22
2023-01-17T07:37:37.116Z,64.77
2023-01-17T07:40:05.757Z,65.97
2023-01-17T07:42:33.658Z,66.07
2023-01-17T07:45:02.167Z,65.62
2023-01-17T07:47:30.562Z,66.32
2023-01-17T07:49:58.468Z,65.49
2023-01-17T07:52:26.351Z,66.25
2023-01-17T07:54:55.683Z,64.06
2023-01-17T07:57:23.684Z,64.96
2023-01-17T07:59:52.313Z,64.97
2023-01-17T08:02:22.242Z,65.48
2023-01-17T08:04:50.741Z,64.84
2023-01-17T08:07:18.706Z,64.59
2023-01-17T08:09:49.679Z,65.87
2023-01-17T08:12:19.113Z,64.92
2023-01-17T08:14:47.045Z,64.09
2023-01-17T08:17:17.067Z,64.69
2023-01-17T08:19:45.251Z,65.09
2023-01-17T08:22:13.241Z,64.32
2023-01-17T08:24:41.909Z,64.85
2023-01-17T08:27:10.029Z,63.81
2023-01-17T08:29:42.143Z,63.91
2023-01-17T08:32:10.070Z,64.98
2023-01-17T08:34:38.038Z,63.76
2023-01-17T08:37:05.932Z,65.12
2023-01-17T08:39:33.928Z,64.50
2023-01-17T08:42:01.791Z,62.31
2023-01-17T08:44:29.740Z,64.10
2023-01-17T08:46:59.199Z,63.69
2023-01-17T08:49:29.548Z,63.44
2023-01-17T08:51:57.687Z,62.90
2023-01-17T08:54:25.604Z,62.13
2023-01-17T08:56:55.579Z,62.98
2023-01-17T08:59:23.811Z,62.07
2023-01-17T09:01:52.537Z,63.12
2023-01-17T09:04:22.227Z,62.80
2023-01-17T09:06:50.149Z,62.91
2023-01-17T09:09:18.705Z,63.07
2023-01-17T09:11:46.573Z,62.96
2023-01-17T09:14:15.547Z,61.10
2023-01-17T09:16:43.563Z,61.21
2023-01-17T09:19:11.508Z,61.22
2023-01-17T09:21:40.773Z,61.25
2023-01-17T09:24:08.803Z,61.32
2023-01-17T09:26:36.828Z,60.66
2023-01-17T09:29:05.057Z,60.90
2023-01-17T09:31:32.975Z,60.15
2023-01-17T09:34:00.876Z,59.50
2023-01-17T09:36:31.900Z,59.45
2023-01-17T09:39:02.071Z,60.02
2023-01-17T09:41:33.346Z,61.66
2023-01-17T09:44:07.339Z,61.07
2023-01-17T09:46:40.625Z,60.96
2023-01-17T09:49:09.585Z,61.14
2023-01-17T09:51:37.988Z,61.17
2023-01-17T09:54:07.290Z,59.75
2023-01-17T09:56:42.327Z,60.03
2023-01-17T09:59:33.251Z,61.75
2023-01-17T10:02:19.658Z,59.93
2023-01-17T10:05:07.684Z,60.50
2023-01-17T10:07:46.318Z,60.73
2023-01-17T10:10:30.444Z,60.12
2023-01-17T10:13:05.082Z,60.30
2023-01-17T10:15:54.663Z,60.31
2023-01-17T10:18:44.133Z,59.42
2023-01-17T10:21:22.229Z,59.15
2023-01-17T10:24:31.786Z,59.26
2023-01-17T10:27:03.988Z,60.65
2023-01-17T10:29:36.525Z,61.16
2023-01-17T10:32:04.859Z,61.31
2023-01-17T10:34:38.410Z,60.38
2023-01-17T10:37:20.988Z,60.77
2023-01-17T10:39:51.087Z,60.74
2023-01-17T10:42:24.840Z,60.26
2023-01-17T10:45:00.951Z,60.34
2023-01-17T10:47:33.669Z,60.31
2023-01-17T10:50:05.155Z,60.08
2023-01-17T10:52:43.349Z,60.15
2023-01-17T10:55:28.024Z,60.78
2023-01-17T10:57:58.924Z,60.71
2023-01-17T11:00:35.491Z,61.44
2023-01-17T11:03:03.823Z,61.45
2023-01-17T11:05:33.764Z,61.63
2023-01-17T11:08:03.937Z,61.07
2023-01-17T11:10:41.525Z,62.27
2023-01-17T11:13:23.805Z,62.03
2023-01-17T11:15:57.598Z,61.84
2023-01-17T11:18:29.188Z,61.52
2023-01-17T11:21:12.234Z,63.45
2023-01-17T11:23:42.859Z,65.07
2023-01-17T11:26:13.823Z,64.33
2023-01-17T11:28:43.368Z,65.99
2023-01-17T11:31:26.824Z,67.59
2023-01-17T11:34:15.157Z,67.15
2023-01-17T11:36:43.352Z,66.16
2023-01-17T11:39:27.435Z,68.96
2023-01-17T11:41:55.677Z,68.97
2023-01-17T11:44:27.381Z,68.60
2023-01-17T11:47:10.557Z,69.50
2023-01-17T11:49:39.376Z,69.27
2023-01-17T11:52:10.441Z,68.84
2023-01-17T11:54:42.376Z,68.11
2023-01-17T11:57:22.001Z,67.75
2023-01-17T11:59:53.412Z,67.73
2023-01-17T12:02:42.216Z,68.41
2023-01-17T12:05:30.362Z,68.65
2023-01-17T12:08:07.882Z,69.99
2023-01-17T12:10:46.257Z,69.82
2023-01-17T12:13:42.586Z,69.89
2023-01-17T12:16:33.181Z,67.92
2023-01-17T12:19:34.737Z,66.92
2023-01-17T12:22:17.543Z,67.87
2023-01-17T12:25:14.849Z,66.90
2023-01-17T12:27:54.337Z,66.74
2023-01-17T12:30:39.158Z,68.15
2023-01-17T12:33:21.111Z,65.48
2023-01-17T12:35:53.084Z,67.29
2023-01-17T12:38:32.559Z,64.81
2023-01-17T12:41:06.352Z,65.46
2023-01-17T12:43:36.944Z,63.86
2023-01-17T12:46:12.513Z,63.90
2023-01-17T12:48:42.173Z,62.97
2023-01-17T12:51:16.552Z,62.46
2023-01-17T12:53:50.983Z,63.62
2023-01-17T12:56:25.887Z,63.43
2023-01-17T12:58:56.960Z,61.40
2023-01-17T13:01:30.475Z,61.23
2023-01-17T13:04:17.726Z,61.42
2023-01-17T13:06:56.006Z,60.67
2023-01-17T13:09:24.979Z,60.88
2023-01-17T13:11:58.211Z,60.21
2023-01-17T13:14:25.904Z,59.48
2023-01-17T13:16:58.854Z,60.59
2023-01-17T13:19:39.070Z,59.52
2023-01-17T13:22:17.309Z,59.97
2023-01-17T13:24:55.744Z,60.65
2023-01-17T13:27:38.517Z,60.00
2023-01-17T13:30:30.758Z,59.68
2023-01-17T13:33:19.730Z,60.44
2023-01-17T13:35:58.188Z,60.43
2023-01-17T13:38:43.656Z,59.50
2023-01-17T13:41:28.161Z,61.84
2023-01-17T13:44:13.752Z,61.02
2023-01-17T13:47:00.677Z,59.19
2023-01-17T13:49:47.585Z,60.01
2023-01-17T13:52:35.942Z,59.84
2023-01-17T13:55:07.224Z,59.36
2023-01-17T13:57:46.702Z,59.57
2023-01-17T14:00:59.150Z,59.27
2023-01-17T14:04:03.549Z,59.01
2023-01-17T14:06:37.370Z,58.95
2023-01-17T14:09:17.632Z,58.50
2023-01-17T14:11:55.063Z,58.00
2023-01-17T14:14:49.771Z,57.87
2023-01-17T14:17:42.566Z,57.09
2023-01-17T14:20:51.079Z,57.47
2023-01-17T14:23:26.287Z,56.89
2023-01-17T14:25:59.256Z,57.19
2023-01-17T14:28:32.692Z,58.27
2023-01-17T14:31:03.340Z,57.86
2023-01-17T14:33:35.650Z,58.11
2023-01-17T14:36:06.268Z,58.09
2023-01-17T14:38:41.955Z,57.78
2023-01-17T14:41:16.478Z,58.00
2023-01-17T14:43:45.371Z,58.31
2023-01-17T14:46:19.926Z,57.44
2023-01-17T14:48:48.621Z,57.49
2023-01-17T14:51:21.292Z,59.40
2023-01-17T14:53:56.719Z,57.29
2023-01-17T14:56:27.935Z,57.40
2023-01-17T14:59:07.203Z,56.64
2023-01-17T15:01:36.571Z,58.33
2023-01-17T15:04:04.968Z,57.29
2023-01-17T15:06:39.355Z,56.89
2023-01-17T15:09:11.872Z,58.75
2023-01-17T15:11:42.193Z,57.69
2023-01-17T15:14:19.817Z,58.07
2023-01-17T15:16:47.966Z,58.93
2023-01-17T15:19:16.477Z,57.85
2023-01-17T15:21:46.781Z,59.33
2023-01-17T15:24:19.982Z,57.44
2023-01-17T15:26:50.123Z,57.94
2023-01-17T15:29:25.231Z,58.88
2023-01-17T15:31:55.112Z,57.99
2023-01-17T15:34:28.610Z,57.86
2023-01-17T15:36:58.569Z,57.30
2023-01-17T15:39:30.192Z,57.73
2023-01-17T15:42:01.679Z,58.88
2023-01-17T15:44:50.292Z,59.21
2023-01-17T15:47:28.816Z,58.94
2023-01-17T15:49:56.732Z,58.91
2023-01-17T15:52:24.644Z,58.50
2023-01-17T15:54:54.571Z,59.44
2023-01-17T15:57:28.306Z,59.50
2023-01-17T15:59:59.529Z,59.99
2023-01-17T16:02:33.132Z,59.25
2023-01-17T16:05:02.425Z,58.97
2023-01-17T16:07:34.068Z,59.46
2023-01-17T16:10:14.800Z,59.01
2023-01-17T16:12:44.193Z,59.76
2023-01-17T16:15:13.514Z,58.80
2023-01-17T16:17:44.626Z,58.70
2023-01-17T16:20:19.703Z,58.18
2023-01-17T16:22:48.359Z,58.76
2023-01-17T16:25:18.819Z,58.56
2023-01-17T16:27:48.556Z,58.14
2023-01-17T16:30:19.258Z,57.74
2023-01-17T16:32:48.707Z,58.14
2023-01-17T16:35:20.765Z,58.56
2023-01-17T16:37:50.407Z,59.25
2023-01-17T16:40:19.071Z,58.15
2023-01-17T16:42:48.636Z,58.41
2023-01-17T16:45:17.591Z,57.18
2023-01-17T16:47:47.363Z,57.92
2023-01-17T16:50:17.941Z,58.24
2023-01-17T16:52:45.841Z,58.44
2023-01-17T16:55:16.004Z,58.65
2023-01-17T16:57:43.985Z,59.12
2023-01-17T17:00:14.622Z,59.06
2023-01-17T17:02:42.588Z,59.00
2023-01-17T17:05:11.537Z,58.99
2023-01-17T17:07:42.859Z,58.84
2023-01-17T17:10:11.714Z,58.98
2023-01-17T17:12:39.540Z,58.17
2023-01-17T17:15:08.458Z,58.45
2023-01-17T17:17:38.040Z,58.58
2023-01-17T17:20:07.518Z,59.26
2023-01-17T17:22:35.401Z,58.54
2023-01-17T17:25:05.251Z,59.51
2023-01-17T17:27:33.321Z,59.25
2023-01-17T17:30:01.270Z,59.30
2023-01-17T17:32:29.301Z,59.20
2023-01-17T17:34:58.541Z,58.68
2023-01-17T17:37:28.969Z,59.36
2023-01-17T17:39:57.037Z,59.14
2023-01-17T17:42:25.630Z,59.21
2023-01-17T17:44:53.643Z,59.31
2023-01-17T17:47:21.526Z,59.85
2023-01-17T17:49:49.440Z,59.35
2023-01-17T17:52:19.064Z,59.37
2023-01-17T17:54:46.903Z,58.30
2023-01-17T17:57:15.138Z,59.01
2023-01-17T17:59:43.091Z,58.74
2023-01-17T18:02:12.128Z,59.30
2023-01-17T18:04:40.131Z,58.88
2023-01-17T18:07:08.264Z,59.81
2023-01-17T18:09:39.313Z,58.78
2023-01-17T18:12:07.885Z,57.96
2023-01-17T18:14:36.283Z,57.97
2023-01-17T18:17:04.633Z,57.83
2023-01-17T18:19:32.634Z,58.19
2023-01-17T18:22:01.070Z,58.31
2023-01-17T18:24:29.456Z,58.98
2023-01-17T18:26:59.140Z,59.06
2023-01-17T18:29:29.197Z,59.50
2023-01-17T18:31:57.207Z,58.58
2023-01-17T18:34:29.235Z,57.95
2023-01-17T18:36:58.941Z,57.97
2023-01-17T18:39:28.161Z,58.41
2023-01-17T18:41:57.163Z,58.98
2023-01-17T18:44:27.745Z,58.90
2023-01-17T18:46:58.114Z,58.52
2023-01-17T18:49:26.132Z,58.55
2023-01-17T18:51:54.017Z,58.64
2023-01-17T18:54:21.938Z,59.96
2023-01-17T18:56:51.048Z,59.65
2023-01-17T18:59:19.664Z,59.54
2023-01-17T19:01:48.993Z,60.28
2023-01-17T19:04:17.889Z,59.75
2023-01-17T19:06:47.936Z,60.42
2023-01-17T19:09:17.075Z,59.79
2023-01-17T19:11:46.234Z,60.57
2023-01-17T19:14:14.544Z,60.04
2023-01-17T19:16:43.118Z,59.72
2023-01-17T19:19:14.414Z,61.46
2023-01-17T19:21:42.600Z,60.80
2023-01-17T19:24:13.038Z,60.69
2023-01-17T19:26:41.310Z,61.83
2023-01-17T19:29:09.122Z,60.78
2023-01-17T19:31:42.311Z,62.01
2023-01-17T19:34:13.767Z,62.49
2023-01-17T19:36:42.120Z,60.94
2023-01-17T19:39:10.491Z,61.87
2023-01-17T19:41:42.097Z,61.97
2023-01-17T19:44:11.979Z,62.40
2023-01-17T19:46:40.007Z,63.88
2023-01-17T19:49:09.794Z,63.25
2023-01-17T19:51:39.662Z,64.07
2023-01-17T19:54:08.400Z,62.39
2023-01-17T19:56:36.753Z,63.74
2023-01-17T19:59:04.844Z,63.68
2023-01-17T20:01:35.225Z,63.97
2023-01-17T20:04:04.658Z,63.97
2023-01-17T20:06:34.534Z,64.96
2023-01-17T20:09:04.588Z,64.04
2023-01-17T20:11:33.105Z,64.22
2023-01-17T20:14:01.181Z,63.46
2023-01-17T20:16:31.616Z,64.04
2023-01-17T20:19:00.202Z,64.82
2023-01-17T20:21:30.548Z,64.54
2023-01-17T20:24:00.492Z,64.53
2023-01-17T20:26:34.955Z,64.90
2023-01-17T20:29:06.771Z,64.59
2023-01-17T20:31:38.107Z,64.64
2023-01-17T20:34:08.082Z,64.16
2023-01-17T20:36:37.009Z,63.62
2023-01-17T20:39:05.865Z,63.49
2023-01-17T20:41:37.297Z,63.71
2023-01-17T20:44:06.851Z,64.73
2023-01-17T20:46:40.405Z,64.60
2023-01-17T20:49:13.320Z,64.53
2023-01-17T20:51:42.061Z,65.44
2023-01-17T20:54:14.229Z,65.83
2023-01-17T20:56:46.708Z,64.77
2023-01-17T20:59:17.081Z,64.54
2023-01-17T21:01:45.582Z,64.90
2023-01-17T21:04:14.730Z,65.93
2023-01-17T21:06:43.743Z,66.95
2023-01-17T21:09:14.135Z,66.04
2023-01-17T21:11:43.517Z,65.59
2023-01-17T21:14:11.422Z,67.58
2023-01-17T21:16:39.495Z,67.46
2023-01-17T21:19:09.189Z,66.92
2023-01-17T21:21:37.119Z,68.03
2023-01-17T21:24:05.899Z,67.58
2023-01-17T21:26:33.738Z,68.37
2023-01-17T21:29:03.641Z,68.50
2023-01-17T21:31:34.734Z,68.95
2023-01-17T21:34:04.784Z,68.01
2023-01-17T21:36:34.724Z,68.58
2023-01-17T21:39:05.383Z,67.61
2023-01-17T21:41:35.081Z,67.53
2023-01-17T21:44:07.877Z,68.26
2023-01-17T21:46:38.326Z,67.90
2023-01-17T21:49:06.299Z,68.67
2023-01-17T21:51:52.990Z,68.43
2023-01-17T21:54:40.889Z,68.42
2023-01-17T21:57:26.308Z,69.48
2023-01-17T21:59:55.584Z,68.22
2023-01-17T22:02:23.923Z,67.33
2023-01-17T22:04:51.880Z,68.35
2023-01-17T22:07:19.789Z,68.76
2023-01-17T22:09:47.663Z,69.11
2023-01-17T22:12:15.525Z,68.23
2023-01-17T22:14:43.380Z,68.83
2023-01-17T22:17:12.576Z,69.60
2023-01-17T22:19:40.537Z,69.54
2023-01-17T22:22:08.441Z,69.03
2023-01-17T22:24:36.285Z,69.67
2023-01-17T22:27:04.236Z,69.39
2023-01-17T22:29:33.957Z,68.25
2023-01-17T22:32:01.920Z,69.55
2023-01-17T22:34:31.164Z,69.55
2023-01-17T22:36:59.086Z,69.11
2023-01-17T22:39:26.962Z,69.90
2023-01-17T22:41:54.848Z,70.25
2023-01-17T22:44:22.751Z,70.15
2023-01-17T22:46:50.628Z,69.90
2023-01-17T22:49:23.284Z,69.99
2023-01-17T22:51:52.641Z,70.14
2023-01-17T22:54:20.508Z,69.67
2023-01-17T22:56:48.603Z,70.55
2023-01-17T22:59:16.651Z,70.17
2023-01-17T23:01:44.575Z,70.39
2023-01-17T23:04:16.020Z,69.37
2023-01-17T23:06:44.483Z,70.42
2023-01-17T23:09:15.541Z,71.53
2023-01-17T23:11:46.727Z,71.03
2023-01-17T23:14:17.628Z,70.89
2023-01-17T23:17:05.137Z,70.73
2023-01-17T23:19:35.796Z,70.41
2023-01-17T23:22:19.172Z,71.00
2023-01-17T23:24:51.120Z,70.71
2023-01-17T23:27:39.095Z,70.46
2023-01-17T23:30:10.775Z,70.04
2023-01-17T23:32:38.964Z,70.45
2023-01-17T23:35:07.793Z,70.99
2023-01-17T23:37:52.884Z,70.73
2023-01-17T23:40:22.354Z,71.06
2023-01-17T23:43:07.504Z,72.16
2023-01-17T23:45:36.845Z,70.32
2023-01-17T23:48:09.282Z,69.76
2023-01-17T23:50:37.866Z,69.71
2023-01-17T23:53:07.960Z,70.57
2023-01-17T23:55:39.316Z,70.01
2023-01-17T23:58:08.550Z,69.66
